Time;durP1;ratioP1;P1;durP2;ratioP2;P2;SDS_P1;SDS_P2;PMS_P1;PMS_P2;Temp;Humidity;BMP_temperature;BMP_pressure;BME280_temperature;BME280_humidity;BME280_pressure;Samples;Min_cycle;Max_cycle;Signal;HPM_P1;HPM_P2
2021/08/11 00:02:20;;;;;;;4.25;3.10;;;;;;;18.75;74.55;100651.81;5039434;28;20069;-81
2021/08/11 00:04:47;;;;;;;4.93;3.42;;;;;;;18.72;74.85;100650.25;5030954;28;20093;-83
2021/08/11 00:07:15;;;;;;;4.55;3.38;;;;;;;18.67;75.11;100647.03;5036689;28;20025;-83
2021/08/11 00:09:42;;;;;;;5.10;3.20;;;;;;;18.66;75.19;100655.22;5017204;28;20068;-82
2021/08/11 00:12:10;;;;;;;3.90;3.30;;;;;;;18.63;75.58;100642.03;5029602;28;20109;-82
2021/08/11 00:14:37;;;;;;;8.02;3.67;;;;;;;18.51;75.33;100635.75;5035548;28;20053;-81
2021/08/11 00:17:03;;;;;;;6.10;3.58;;;;;;;18.59;75.43;100649.44;5037350;28;20041;-82
2021/08/11 00:19:31;;;;;;;7.07;3.42;;;;;;;18.55;75.49;100656.00;5000747;28;20054;-82
2021/08/11 00:21:58;;;;;;;6.03;3.70;;;;;;;18.54;75.46;100667.69;5022149;28;20109;-82
2021/08/11 00:24:25;;;;;;;5.75;3.65;;;;;;;18.49;75.78;100660.00;5018763;28;20046;-82
2021/08/11 00:26:51;;;;;;;4.72;3.40;;;;;;;18.45;75.87;100652.28;5027819;28;20046;-82
2021/08/11 00:29:18;;;;;;;4.10;3.25;;;;;;;18.44;76.32;100662.16;5019971;28;20116;-82
2021/08/11 00:31:45;;;;;;;4.32;3.55;;;;;;;18.44;76.40;100662.16;5022488;28;20049;-82
2021/08/11 00:34:13;;;;;;;5.55;3.70;;;;;;;18.43;76.14;100657.75;5009002;28;20519;-82
2021/08/11 00:36:39;;;;;;;4.93;3.00;;;;;;;18.44;76.41;100662.16;5014786;28;20385;-82
2021/08/11 00:39:06;;;;;;;5.85;3.45;;;;;;;18.42;76.36;100658.72;5023077;28;20050;-82
2021/08/11 00:41:34;;;;;;;5.80;3.53;;;;;;;18.39;76.60;100658.97;5024104;28;20057;-82
2021/08/11 00:44:01;;;;;;;5.03;3.35;;;;;;;18.40;76.84;100668.75;5022838;28;20564;-82
2021/08/11 00:46:28;;;;;;;3.90;3.25;;;;;;;18.38;76.84;100672.50;5021807;28;20117;-82
2021/08/11 00:48:56;;;;;;;4.88;3.83;;;;;;;18.36;76.84;100664.56;5023723;28;20054;-82
2021/08/11 00:51:26;;;;;;;6.10;3.85;;;;;;;18.33;76.97;100664.78;5023668;28;20042;-82
2021/08/11 00:53:54;;;;;;;4.82;3.38;;;;;;;18.31;77.13;100656.00;5027757;28;20042;-83
2021/08/11 00:56:23;;;;;;;5.68;3.55;;;;;;;18.30;77.54;100656.13;5033991;28;20040;-82
2021/08/11 00:58:53;;;;;;;;;;;;;;;18.29;77.51;100652.59;5036386;28;20044;-82
2021/08/11 01:01:21;;;;;;;6.75;3.67;;;;;;;18.26;77.51;100657.34;5035322;28;19961;-82
2021/08/11 01:03:54;;;;;;;4.28;3.53;;;;;;;18.24;77.77;100649.41;5033567;28;20073;-82
2021/08/11 01:06:22;;;;;;;5.93;3.88;;;;;;;18.24;78.02;100646.72;5040062;28;20076;-82
2021/08/11 01:08:55;;;;;;;6.07;3.88;;;;;;;18.21;78.14;100645.13;5035137;28;20034;-82
2021/08/11 01:11:25;;;;;;;5.32;3.60;;;;;;;18.16;77.83;100638.38;5039725;28;20098;-82
2021/08/11 01:13:52;;;;;;;4.65;3.30;;;;;;;18.09;78.10;100645.19;5039836;28;20085;-82
2021/08/11 01:16:19;;;;;;;4.47;3.53;;;;;;;17.95;78.63;100637.28;5011035;28;20050;-82
2021/08/11 01:18:45;;;;;;;7.38;3.80;;;;;;;18.01;79.06;100664.50;5019573;28;20065;-82
2021/08/11 01:21:25;;;;;;;5.68;3.20;;;;;;;17.97;79.23;100662.16;5021868;28;20060;-82
2021/08/11 01:24:08;;;;;;;5.65;3.92;;;;;;;17.96;79.48;100672.00;5019041;28;20501;-82
2021/08/11 01:27:17;;;;;;;5.47;3.85;;;;;;;17.95;79.72;100674.81;5019082;28;20084;-82
2021/08/11 01:29:59;;;;;;;5.00;3.28;;;;;;;17.93;79.68;100674.09;5021348;28;20042;-82
2021/08/11 01:32:47;;;;;;;4.35;3.95;;;;;;;17.93;79.56;100676.75;5022037;28;20050;-82
2021/08/11 01:35:18;;;;;;;8.40;4.22;;;;;;;17.90;79.71;100676.97;5022955;28;20071;-82
2021/08/11 01:37:51;;;;;;;6.63;4.20;;;;;;;17.85;79.50;100669.28;5023808;28;20085;-82
2021/08/11 01:40:22;;;;;;;4.82;4.07;;;;;;;17.81;80.09;100678.50;5021535;28;20042;-82
2021/08/11 01:42:53;;;;;;;6.57;4.43;;;;;;;17.77;80.47;100677.88;5015469;28;20057;-82
2021/08/11 01:45:29;;;;;;;5.13;4.10;;;;;;;17.74;80.59;100672.75;5023792;28;20053;-81
2021/08/11 01:48:19;;;;;;;4.88;4.00;;;;;;;17.72;80.56;100677.34;5026819;28;20053;-82
2021/08/11 01:50:47;;;;;;;6.47;4.40;;;;;;;17.68;80.88;100677.66;5015071;28;20061;-82
2021/08/11 01:53:20;;;;;;;7.88;4.30;;;;;;;17.60;80.62;100675.53;5016221;28;21067;-82
2021/08/11 01:55:50;;;;;;;6.63;4.30;;;;;;;17.52;80.87;100675.19;5026551;28;20049;-82
2021/08/11 01:58:25;;;;;;;5.60;4.03;;;;;;;17.44;81.06;100669.56;5023180;28;20457;-82
2021/08/11 02:00:55;;;;;;;7.55;4.15;;;;;;;17.36;81.67;100669.22;5026225;28;20475;-82
2021/08/11 02:03:23;;;;;;;5.55;4.15;;;;;;;17.24;81.75;100656.72;5036650;28;20044;-82
2021/08/11 02:05:52;;;;;;;7.25;4.53;;;;;;;17.20;82.29;100666.78;5045612;28;20117;-81
2021/08/11 02:08:24;;;;;;;7.75;4.78;;;;;;;17.08;83.30;100667.63;5038246;28;20089;-81
2021/08/11 02:10:57;;;;;;;7.45;4.68;;;;;;;17.04;84.05;100676.81;5023472;28;20101;-81
2021/08/11 02:13:24;;;;;;;6.78;4.25;;;;;;;17.00;84.04;100676.19;5036624;28;20185;-81
2021/08/11 02:15:52;;;;;;;6.70;4.47;;;;;;;16.93;84.36;100669.56;5025167;28;20080;-82
2021/08/11 02:18:19;;;;;;;7.95;4.72;;;;;;;16.83;84.71;100664.00;5034916;28;20086;-81
2021/08/11 02:20:46;;;;;;;7.15;4.60;;;;;;;16.81;85.46;100662.38;5023769;28;20049;-81
2021/08/11 02:23:16;;;;;;;7.70;4.60;;;;;;;16.77;85.41;100666.22;5025021;28;20457;-82
2021/08/11 02:26:02;;;;;;;6.25;4.35;;;;;;;16.76;85.73;100670.72;5014659;28;20084;-82
2021/08/11 02:28:34;;;;;;;6.22;4.07;;;;;;;16.81;86.24;100670.41;5012845;28;20438;-82
2021/08/11 02:31:07;;;;;;;5.85;4.15;;;;;;;16.83;86.12;100663.13;5028216;28;20050;-81
2021/08/11 02:33:44;;;;;;;5.40;4.15;;;;;;;16.88;86.17;100677.03;5028768;28;20124;-82
2021/08/11 02:36:32;;;;;;;6.65;4.45;;;;;;;16.87;85.51;100674.47;5035612;28;20136;-82
2021/08/11 02:39:08;;;;;;;6.78;4.45;;;;;;;16.88;85.90;100681.53;5038994;28;20056;-82
2021/08/11 02:41:44;;;;;;;6.80;4.78;;;;;;;16.90;85.61;100683.13;5038186;28;20128;-82
2021/08/11 02:44:18;;;;;;;7.30;4.45;;;;;;;16.91;85.53;100684.84;5044034;28;20053;-82
2021/08/11 02:46:48;;;;;;;6.82;4.22;;;;;;;16.89;85.18;100681.41;5035925;28;20059;-82
2021/08/11 02:49:26;;;;;;;;;;;;;;;16.83;84.76;100673.84;5034172;28;20065;-82
2021/08/11 02:51:55;;;;;;;5.43;4.13;;;;;;;16.79;85.25;100672.31;5051104;28;19968;-81
2021/08/11 02:54:24;;;;;;;7.03;4.50;;;;;;;16.74;85.47;100675.31;5053894;28;20101;-81
2021/08/11 02:56:52;;;;;;;6.70;4.40;;;;;;;16.71;85.25;100672.81;5056209;28;20045;-82
2021/08/11 02:59:21;;;;;;;6.80;4.43;;;;;;;16.66;85.48;100668.78;5056240;28;20071;-81
2021/08/11 03:01:49;;;;;;;5.93;4.05;;;;;;;16.65;85.43;100673.25;5050076;28;20045;-81
2021/08/11 03:04:18;;;;;;;6.38;4.43;;;;;;;16.60;85.46;100674.50;5046682;28;20052;-82
2021/08/11 03:06:45;;;;;;;5.57;3.83;;;;;;;16.54;85.54;100673.06;5039550;28;20068;-82
2021/08/11 03:09:12;;;;;;;4.80;3.90;;;;;;;16.45;85.59;100669.22;5042716;28;20049;-82
2021/08/11 03:11:40;;;;;;;6.20;4.55;;;;;;;16.31;86.64;100673.78;5018606;28;20416;-81
2021/08/11 03:14:08;;;;;;;6.60;4.40;;;;;;;16.22;87.12;100679.69;5037870;28;20049;-82
2021/08/11 03:16:40;;;;;;;6.32;4.20;;;;;;;16.20;87.60;100677.16;5037035;28;20066;-82
2021/08/11 03:19:07;;;;;;;6.75;4.35;;;;;;;16.18;87.67;100678.22;5036097;28;20058;-82
2021/08/11 03:21:36;;;;;;;5.32;4.15;;;;;;;16.13;88.55;100679.38;5038305;28;20877;-82
2021/08/11 03:24:03;;;;;;;7.63;5.20;;;;;;;16.09;88.54;100682.31;5038178;28;20076;-82
2021/08/11 03:26:30;;;;;;;8.27;4.97;;;;;;;16.07;88.30;100684.25;5043932;28;20055;-82
2021/08/11 03:29:01;;;;;;;5.05;4.13;;;;;;;16.08;89.00;100685.94;5041235;28;20455;-81
2021/08/11 03:31:30;;;;;;;5.90;4.57;;;;;;;16.11;89.14;100691.97;5027204;28;20045;-82
2021/08/11 03:33:58;;;;;;;7.50;4.47;;;;;;;16.06;88.69;100690.53;5035806;28;20045;-82
2021/08/11 03:36:27;;;;;;;6.72;4.80;;;;;;;16.01;89.04;100684.66;5030894;28;20278;-82
2021/08/11 03:38:54;;;;;;;7.28;4.80;;;;;;;15.90;89.43;100677.31;5042844;28;20053;-82
2021/08/11 03:41:22;;;;;;;6.72;4.45;;;;;;;15.91;89.95;100692.38;5050253;28;20064;-82
2021/08/11 03:43:56;;;;;;;7.25;4.90;;;;;;;15.90;90.17;100690.66;5035295;28;20069;-82
2021/08/11 03:46:23;;;;;;;8.10;5.10;;;;;;;15.91;90.09;100688.84;5037263;28;20137;-82
2021/08/11 03:48:52;;;;;;;6.07;4.75;;;;;;;15.93;90.28;100689.63;5052003;28;20053;-82
2021/08/11 03:51:19;;;;;;;6.03;4.57;;;;;;;15.96;90.16;100682.28;5053653;28;20080;-82
2021/08/11 03:53:46;;;;;;;6.45;4.80;;;;;;;16.02;90.32;100681.88;5053741;28;20045;-82
2021/08/11 03:56:14;;;;;;;6.90;5.00;;;;;;;16.07;90.20;100684.25;5033185;28;20073;-82
2021/08/11 03:58:40;;;;;;;7.30;4.30;;;;;;;16.07;89.27;100674.41;5040552;28;20049;-82
2021/08/11 04:01:07;;;;;;;5.43;4.60;;;;;;;16.14;89.57;100678.41;5023169;28;20060;-82
2021/08/11 04:03:34;;;;;;;6.57;4.55;;;;;;;16.18;89.41;100675.53;5032842;28;20046;-82
2021/08/11 04:06:03;;;;;;;6.03;4.90;;;;;;;16.20;89.46;100685.19;5031197;28;20050;-82
2021/08/11 04:08:32;;;;;;;7.13;4.35;;;;;;;16.23;89.28;100682.28;5032775;28;20055;-82
2021/08/11 04:10:59;;;;;;;5.05;4.13;;;;;;;16.25;89.01;100688.38;5031228;28;20057;-81
2021/08/11 04:13:25;;;;;;;7.47;4.70;;;;;;;16.26;88.78;100683.91;5031921;28;20045;-82
2021/08/11 04:15:52;;;;;;;7.53;4.80;;;;;;;16.26;88.50;100699.94;5015583;28;20051;-81
2021/08/11 04:18:19;;;;;;;9.15;5.32;;;;;;;16.22;88.54;100709.09;5017426;28;20583;-81
2021/08/11 04:20:45;;;;;;;7.80;5.00;;;;;;;16.14;88.92;100702.47;5032404;28;20376;-81
2021/08/11 04:23:13;;;;;;;6.63;5.07;;;;;;;16.12;89.29;100698.16;5032695;28;20107;-82
2021/08/11 04:25:41;;;;;;;7.50;4.75;;;;;;;16.17;89.48;100711.22;5009842;28;20045;-82
2021/08/11 04:28:09;;;;;;;7.03;4.65;;;;;;;16.16;88.95;100704.16;5034632;28;20050;-82
2021/08/11 04:30:37;;;;;;;6.32;4.47;;;;;;;16.10;88.88;100710.75;5034839;28;20125;-82
2021/08/11 04:33:03;;;;;;;6.72;4.68;;;;;;;16.02;89.14;100719.28;5035335;28;20080;-82
2021/08/11 04:35:30;;;;;;;8.65;5.00;;;;;;;15.96;89.23;100718.81;5015889;28;21395;-82
2021/08/11 04:37:57;;;;;;;7.22;4.82;;;;;;;15.95;89.46;100719.75;5034010;28;20069;-82
2021/08/11 04:40:24;;;;;;;6.75;5.00;;;;;;;15.92;89.20;100723.47;5025696;28;20052;-82
2021/08/11 04:42:50;;;;;;;6.90;5.03;;;;;;;15.86;89.41;100717.69;5032039;28;20042;-82
2021/08/11 04:45:18;;;;;;;6.97;4.95;;;;;;;15.84;89.46;100715.13;5031578;28;20085;-82
2021/08/11 04:47:48;;;;;;;9.13;5.60;;;;;;;15.81;90.05;100711.78;5035666;28;20046;-82
2021/08/11 04:50:15;;;;;;;7.47;4.75;;;;;;;15.78;90.21;100715.50;5034620;28;20097;-82
2021/08/11 04:52:42;;;;;;;7.32;5.20;;;;;;;15.78;90.18;100715.50;5039483;28;20045;-82
2021/08/11 04:55:11;;;;;;;7.65;4.93;;;;;;;15.82;90.66;100718.84;5039172;28;20047;-82
2021/08/11 04:57:41;;;;;;;7.82;4.80;;;;;;;15.87;90.66;100709.59;5040389;28;20069;-82
2021/08/11 05:00:08;;;;;;;9.05;4.97;;;;;;;15.89;90.60;100710.34;5033088;28;20048;-81
2021/08/11 05:02:37;;;;;;;7.07;4.97;;;;;;;15.95;90.41;100707.25;5015886;28;20052;-82
2021/08/11 05:05:06;;;;;;;6.00;4.80;;;;;;;16.07;90.15;100716.28;5024676;28;20457;-82
2021/08/11 05:07:33;;;;;;;4.90;4.45;;;;;;;16.14;90.30;100721.16;5035438;28;20053;-82
2021/08/11 05:10:00;;;;;;;7.13;5.00;;;;;;;16.21;89.55;100718.09;5040977;28;20060;-82
2021/08/11 05:12:28;;;;;;;5.97;4.30;;;;;;;16.29;89.09;100727.31;5029736;28;20092;-82
2021/08/11 05:15:00;;;;;;;6.80;4.85;;;;;;;16.33;88.67;100734.19;5045260;28;20037;-82
2021/08/11 05:17:28;;;;;;;7.55;4.80;;;;;;;16.40;88.50;100737.28;5041814;28;20105;-82
2021/08/11 05:19:55;;;;;;;5.13;4.43;;;;;;;16.45;88.43;100736.03;5048939;28;20128;-82
2021/08/11 05:22:22;;;;;;;5.97;4.28;;;;;;;16.55;88.40;100738.94;5045047;28;20045;-82
2021/08/11 05:24:51;;;;;;;5.28;4.38;;;;;;;16.62;87.88;100736.75;5038201;28;20072;-83
2021/08/11 05:27:18;;;;;;;7.28;4.57;;;;;;;16.70;87.69;100737.09;5037646;28;20080;-82
2021/08/11 05:29:49;;;;;;;9.10;4.72;;;;;;;16.79;87.78;100745.38;5045135;28;20116;-84
2021/08/11 05:32:16;;;;;;;7.72;4.43;;;;;;;16.87;87.29;100742.19;5049840;28;20112;-84
2021/08/11 05:34:44;;;;;;;8.60;4.88;;;;;;;16.95;86.79;100745.22;5050386;28;20045;-83
2021/08/11 05:37:12;;;;;;;5.72;5.13;;;;;;;17.04;86.84;100746.38;5049350;28;20049;-86
2021/08/11 05:39:41;;;;;;;7.10;4.80;;;;;;;17.12;86.57;100744.06;5044220;28;20051;-86
2021/08/11 05:42:09;;;;;;;6.20;4.43;;;;;;;17.18;86.23;100743.63;5038264;28;20049;-84
2021/08/11 05:44:36;;;;;;;6.72;4.82;;;;;;;17.27;85.49;100747.50;5035900;28;20045;-83
2021/08/11 05:47:04;;;;;;;7.43;4.50;;;;;;;17.33;85.83;100749.72;5037035;28;20434;-83
2021/08/11 05:49:35;;;;;;;6.15;4.70;;;;;;;17.44;86.00;100755.22;5032015;28;20053;-83
2021/08/11 05:52:04;;;;;;;6.07;4.75;;;;;;;17.47;85.14;100738.94;5039202;28;20484;-84
2021/08/11 05:54:35;;;;;;;6.53;4.80;;;;;;;17.66;84.72;100760.81;5035298;28;20128;-86
2021/08/11 05:57:06;;;;;;;10.68;4.88;;;;;;;17.68;83.53;100753.53;5033693;28;20041;-86
2021/08/11 05:59:37;;;;;;;6.70;4.55;;;;;;;17.74;83.50;100755.78;5044344;28;20049;-84
2021/08/11 06:02:04;;;;;;;6.90;4.72;;;;;;;17.78;82.90;100759.97;5053634;28;20037;-83
2021/08/11 06:04:34;;;;;;;7.30;4.65;;;;;;;17.86;82.56;100762.06;5058124;28;20053;-81
2021/08/11 06:07:01;;;;;;;7.80;5.05;;;;;;;17.91;82.43;100761.75;5055804;28;20049;-82
2021/08/11 06:09:28;;;;;;;7.13;4.60;;;;;;;17.97;82.20;100762.16;5043870;28;20041;-81
2021/08/11 06:11:55;;;;;;;8.55;4.95;;;;;;;18.03;82.02;100761.72;5044268;28;20055;-80
2021/08/11 06:14:22;;;;;;;7.07;4.72;;;;;;;18.08;82.01;100764.94;5042496;28;20042;-82
2021/08/11 06:16:48;;;;;;;8.38;5.32;;;;;;;18.18;81.76;100754.41;5022265;28;20045;-80
2021/08/11 06:19:15;;;;;;;13.05;6.50;;;;;;;18.42;81.42;100762.44;5030643;28;20140;-80
2021/08/11 06:21:43;;;;;;;13.25;7.13;;;;;;;18.67;79.87;100754.34;5040390;28;20045;-84
2021/08/11 06:24:11;;;;;;;11.93;7.03;;;;;;;18.99;77.88;100757.28;5048837;28;20112;-86
2021/08/11 06:26:39;;;;;;;11.02;7.03;;;;;;;19.54;75.51;100756.56;5045895;28;20212;-85
2021/08/11 06:29:06;;;;;;;12.00;5.93;;;;;;;20.22;71.51;100766.31;5049046;28;20508;-86
2021/08/11 06:31:34;;;;;;;7.50;6.13;;;;;;;20.72;69.69;100757.78;5023086;28;20870;-83
2021/08/11 06:34:01;;;;;;;10.07;6.90;;;;;;;21.15;67.36;100758.56;5044578;28;20037;-84
2021/08/11 06:36:28;;;;;;;10.57;5.63;;;;;;;21.57;66.09;100759.41;5045678;28;20052;-83
2021/08/11 06:38:55;;;;;;;9.00;5.20;;;;;;;21.95;64.93;100747.97;5042479;28;20060;-84
2021/08/11 06:41:24;;;;;;;8.30;4.97;;;;;;;22.44;62.13;100750.81;5051197;28;20104;-83
2021/08/11 06:43:53;;;;;;;7.85;4.90;;;;;;;22.66;61.95;100754.13;5051843;28;20460;-83
2021/08/11 06:46:20;;;;;;;7.00;4.88;;;;;;;22.79;60.58;100750.34;5054937;28;20049;-86
2021/08/11 06:48:46;;;;;;;8.05;4.90;;;;;;;22.78;59.71;100751.31;5041614;28;20067;-84
2021/08/11 06:51:13;;;;;;;7.25;5.00;;;;;;;22.85;59.52;100755.16;5037894;28;20049;-86
2021/08/11 06:53:41;;;;;;;7.85;5.07;;;;;;;23.01;58.62;100747.31;5041036;28;20045;-83
2021/08/11 06:56:08;;;;;;;6.47;4.78;;;;;;;23.17;59.01;100755.69;5043555;28;20049;-83
2021/08/11 06:58:36;;;;;;;7.82;4.78;;;;;;;23.38;58.07;100748.28;5020946;28;20053;-83
2021/08/11 07:01:05;;;;;;;10.63;5.00;;;;;;;23.50;57.00;100748.09;5040029;28;20052;-84
2021/08/11 07:03:33;;;;;;;7.25;4.50;;;;;;;23.56;57.11;100747.56;5040858;28;20116;-83
2021/08/11 07:06:02;;;;;;;6.32;4.80;;;;;;;23.49;56.98;100751.78;5034516;28;20452;-85
2021/08/11 07:08:31;;;;;;;7.90;4.90;;;;;;;23.34;58.53;100737.91;5034430;28;20122;-84
2021/08/11 07:11:02;;;;;;;8.13;4.63;;;;;;;23.47;57.65;100745.69;5036286;28;20081;-84
2021/08/11 07:13:30;;;;;;;9.85;4.97;;;;;;;23.60;57.04;100748.97;5032940;28;20048;-83
2021/08/11 07:16:01;;;;;;;9.45;4.82;;;;;;;23.49;57.44;100752.66;5037853;28;20125;-83
2021/08/11 07:18:29;;;;;;;9.70;4.75;;;;;;;23.27;58.33;100748.44;5028052;28;20069;-84
2021/08/11 07:20:58;;;;;;;8.38;4.63;;;;;;;23.21;58.62;100748.16;5042080;28;20048;-83
2021/08/11 07:23:24;;;;;;;8.23;4.70;;;;;;;23.28;58.85;100747.47;5050501;28;20144;-84
2021/08/11 07:25:51;;;;;;;7.68;4.35;;;;;;;23.43;58.62;100756.81;5044095;28;20572;-85
2021/08/11 07:28:18;;;;;;;6.53;4.45;;;;;;;23.25;57.90;100761.25;5059228;28;20108;-85
2021/08/11 07:30:47;;;;;;;7.72;4.47;;;;;;;23.27;58.85;100770.06;5044617;28;20045;-85
2021/08/11 07:33:14;;;;;;;7.38;4.20;;;;;;;23.19;58.96;100759.13;5051937;28;20045;-85
2021/08/11 07:35:42;;;;;;;8.70;4.00;;;;;;;23.14;58.87;100764.09;5056443;28;20199;-84
2021/08/11 07:38:10;;;;;;;7.88;4.40;;;;;;;23.24;59.98;100769.50;5063969;28;20041;-84
2021/08/11 07:40:39;;;;;;;6.55;4.40;;;;;;;23.37;59.21;100761.94;5047576;28;20117;-84
2021/08/11 07:43:06;;;;;;;7.55;4.40;;;;;;;23.50;59.34;100767.88;5050365;28;20076;-85
2021/08/11 07:45:35;;;;;;;6.50;4.30;;;;;;;23.73;58.42;100771.97;5041640;28;20056;-84
2021/08/11 07:48:04;;;;;;;7.75;4.80;;;;;;;23.51;56.92;100769.63;5055909;28;20101;-85
2021/08/11 07:50:35;;;;;;;6.85;4.60;;;;;;;23.40;58.35;100767.91;5032427;28;20065;-85
2021/08/11 07:53:01;;;;;;;9.57;5.20;;;;;;;23.43;58.53;100775.72;5043821;28;20031;-86
2021/08/11 07:55:28;;;;;;;8.52;4.80;;;;;;;23.52;58.22;100778.56;5052877;28;20048;-86
2021/08/11 07:57:55;;;;;;;8.32;4.78;;;;;;;23.54;58.78;100772.03;5058028;28;20068;-85
2021/08/11 08:00:22;;;;;;;6.40;3.90;;;;;;;23.73;57.55;100781.94;5058583;28;20025;-86
2021/08/11 08:02:50;;;;;;;7.50;4.20;;;;;;;23.92;57.34;100778.31;5057327;28;20085;-86
2021/08/11 08:05:19;;;;;;;7.70;3.40;;;;;;;23.98;56.56;100777.72;5055421;28;20029;-86
2021/08/11 08:07:49;;;;;;;8.48;3.97;;;;;;;24.08;57.34;100773.94;5059756;28;20327;-86
2021/08/11 08:10:16;;;;;;;6.65;4.28;;;;;;;24.25;55.69;100779.59;5054012;28;20463;-85
2021/08/11 08:12:44;;;;;;;5.75;4.20;;;;;;;24.19;54.73;100774.78;5042399;28;20041;-86
2021/08/11 08:15:13;;;;;;;8.45;4.20;;;;;;;24.01;55.56;100778.28;5053693;28;20042;-85
2021/08/11 08:17:42;;;;;;;7.05;3.58;;;;;;;23.97;55.75;100779.56;5040689;28;20095;-85
2021/08/11 08:20:15;;;;;;;5.25;3.70;;;;;;;23.99;55.30;100776.72;5035509;28;20072;-85
2021/08/11 08:22:45;;;;;;;11.45;4.30;;;;;;;23.95;54.83;100772.59;5033222;28;20481;-85
2021/08/11 08:25:14;;;;;;;5.13;3.42;;;;;;;23.98;54.73;100781.28;5035565;28;20440;-85
2021/08/11 08:27:44;;;;;;;8.00;3.40;;;;;;;23.93;54.72;100777.28;5025330;28;20517;-86
2021/08/11 08:30:10;;;;;;;7.32;3.55;;;;;;;24.03;55.27;100778.13;5036785;28;20052;-85
2021/08/11 08:32:37;;;;;;;6.45;3.65;;;;;;;24.14;54.21;100776.06;5038931;28;20084;-86
2021/08/11 08:35:04;;;;;;;7.50;3.67;;;;;;;24.17;54.47;100779.47;5043843;28;20132;-86
2021/08/11 08:37:33;;;;;;;9.13;4.28;;;;;;;24.07;54.33;100774.97;5036812;28;20505;-87
2021/08/11 08:40:12;;;;;;;8.38;4.03;;;;;;;23.92;54.93;100776.47;5036221;28;20045;-85
2021/08/11 08:42:42;;;;;;;4.60;3.53;;;;;;;23.88;55.17;100777.75;5020241;28;20073;-86
2021/08/11 08:45:12;;;;;;;5.35;3.58;;;;;;;23.94;55.03;100773.59;5037000;28;20045;-85
2021/08/11 08:47:40;;;;;;;4.45;3.20;;;;;;;23.77;55.37;100773.38;5038199;28;20071;-85
2021/08/11 08:50:11;;;;;;;7.35;3.20;;;;;;;23.82;56.29;100769.38;5036854;28;20053;-85
2021/08/11 08:52:38;;;;;;;3.88;2.88;;;;;;;24.05;54.19;100781.53;5034025;28;20104;-86
2021/08/11 08:55:06;;;;;;;3.95;2.85;;;;;;;24.14;53.54;100778.78;5036636;28;20081;-85
2021/08/11 08:57:35;;;;;;;7.20;4.15;;;;;;;24.13;53.81;100777.06;5033703;28;20053;-85
2021/08/11 09:00:09;;;;;;;4.15;3.08;;;;;;;24.19;53.09;100774.78;5019632;28;20046;-86
2021/08/11 09:02:41;;;;;;;4.38;2.92;;;;;;;24.25;52.43;100780.44;5032867;28;20046;-85
2021/08/11 09:05:09;;;;;;;6.43;2.90;;;;;;;24.20;52.39;100774.63;5034304;28;20041;-87
2021/08/11 09:07:44;;;;;;;5.63;3.60;;;;;;;24.22;53.08;100769.91;5029084;28;20041;-86
2021/08/11 09:10:16;;;;;;;16.75;9.13;;;;;;;24.29;53.09;100778.31;5033763;28;20073;-85
2021/08/11 09:13:05;;;;;;;7.90;4.10;;;;;;;24.21;52.20;100770.91;5032330;28;20108;-86
2021/08/11 09:15:34;;;;;;;7.30;3.42;;;;;;;24.24;53.31;100767.91;5035655;28;20050;-86
2021/08/11 09:18:18;;;;;;;9.80;4.82;;;;;;;24.31;52.35;100776.28;5032703;28;20044;-86
2021/08/11 09:21:10;;;;;;;17.05;8.10;;;;;;;24.25;52.03;100787.72;5035048;28;20049;-87
2021/08/11 09:23:45;;;;;;;5.72;2.95;;;;;;;24.25;52.44;100780.44;5033625;28;20092;-86
2021/08/11 09:26:14;;;;;;;3.67;2.95;;;;;;;24.23;51.86;100782.47;5014034;28;20789;-86
2021/08/11 09:28:43;;;;;;;6.82;2.90;;;;;;;24.18;52.05;100773.06;5020310;28;20053;-86
2021/08/11 09:31:32;;;;;;;7.68;4.38;;;;;;;24.12;52.82;100791.59;5035507;28;20048;-88
2021/08/11 09:34:03;;;;;;;6.20;4.28;;;;;;;24.06;52.33;100769.72;5041620;28;20049;-87
2021/08/11 09:36:52;;;;;;;6.50;4.13;;;;;;;24.05;52.75;100768.88;5041022;28;20567;-86
2021/08/11 09:39:21;;;;;;;8.73;4.35;;;;;;;24.08;52.84;100771.25;5035159;28;20049;-86
2021/08/11 09:42:06;;;;;;;8.18;4.85;;;;;;;24.21;52.53;100779.03;5044178;28;20069;-87
2021/08/11 09:44:58;;;;;;;4.75;2.38;;;;;;;24.13;51.84;100774.34;5035368;28;20081;-86
2021/08/11 09:47:27;;;;;;;5.47;2.53;;;;;;;24.14;50.89;100767.09;5039528;28;20058;-87
2021/08/11 09:50:06;;;;;;;3.17;2.33;;;;;;;24.22;51.24;100769.06;5041455;28;20056;-87
2021/08/11 09:52:51;;;;;;;6.20;3.42;;;;;;;24.25;51.12;100768.78;5042929;28;20124;-87
2021/08/11 09:55:21;;;;;;;6.30;3.22;;;;;;;24.31;51.81;100770.88;5034386;28;20075;-86
2021/08/11 09:58:18;;;;;;;3.97;2.85;;;;;;;24.41;51.79;100767.09;5057099;28;20375;-85
2021/08/11 10:00:47;;;;;;;9.25;3.72;;;;;;;24.60;51.95;100765.28;5051165;28;20083;-85
2021/08/11 10:03:14;;;;;;;6.75;3.47;;;;;;;24.67;50.64;100761.81;5040398;28;20038;-85
2021/08/11 10:05:41;;;;;;;6.20;3.22;;;;;;;24.57;49.96;100766.44;5025658;28;20056;-86
2021/08/11 10:08:27;;;;;;;4.47;3.10;;;;;;;24.57;50.71;100768.28;5040358;28;20110;-86
2021/08/11 10:10:55;;;;;;;5.65;3.35;;;;;;;24.53;50.87;100765.06;5053698;28;20031;-86
2021/08/11 10:13:23;;;;;;;4.82;2.95;;;;;;;24.59;51.08;100760.88;5052680;28;20113;-86
2021/08/11 10:15:52;;;;;;;5.32;2.72;;;;;;;24.65;49.64;100768.38;5053146;28;20034;-86
2021/08/11 10:18:27;;;;;;;12.75;4.63;;;;;;;24.68;49.57;100766.22;5029070;28;20057;-85
2021/08/11 10:20:56;;;;;;;9.57;5.07;;;;;;;24.74;50.17;100768.31;5036507;28;20400;-86
2021/08/11 10:23:23;;;;;;;3.10;2.72;;;;;;;24.81;49.90;100763.97;5038058;28;20044;-85
2021/08/11 10:25:56;;;;;;;3.83;2.58;;;;;;;24.65;50.16;100766.53;5043505;28;20084;-85
2021/08/11 10:28:24;;;;;;;4.53;2.70;;;;;;;24.61;50.80;100772.41;5033802;28;20045;-85
2021/08/11 10:30:51;;;;;;;4.03;2.70;;;;;;;24.77;50.37;100770.72;5019539;28;20140;-86
2021/08/11 10:33:20;;;;;;;5.15;3.13;;;;;;;25.02;48.74;100776.41;5035793;28;20462;-86
2021/08/11 10:35:48;;;;;;;4.60;2.45;;;;;;;25.23;48.67;100762.50;5039057;28;20052;-86
2021/08/11 10:38:17;;;;;;;4.95;2.80;;;;;;;25.45;48.06;100759.28;5017282;28;20069;-85
2021/08/11 10:40:55;;;;;;;3.47;2.67;;;;;;;25.63;48.04;100761.97;5033606;28;20111;-85
2021/08/11 10:43:23;;;;;;;4.30;2.60;;;;;;;25.76;46.77;100759.69;5032285;28;20401;-85
2021/08/11 10:46:15;;;;;;;3.22;2.20;;;;;;;25.90;46.60;100756.34;5040720;28;20057;-86
2021/08/11 10:49:00;;;;;;;3.53;2.20;;;;;;;25.98;45.14;100752.81;5041572;28;20063;-86
2021/08/11 10:51:49;;;;;;;3.25;2.20;;;;;;;25.96;45.80;100758.44;5023668;28;20048;-85
2021/08/11 10:54:49;;;;;;;3.80;2.03;;;;;;;25.99;45.66;100749.94;5041503;28;20088;-85
2021/08/11 10:57:42;;;;;;;5.88;2.25;;;;;;;26.08;45.49;100754.41;5045060;28;20050;-85
2021/08/11 11:00:25;;;;;;;3.55;2.10;;;;;;;26.15;44.28;100747.28;5039727;28;20053;-84
2021/08/11 11:02:52;;;;;;;2.70;1.95;;;;;;;26.13;43.78;100740.38;5037175;28;20135;-85
2021/08/11 11:05:24;;;;;;;3.17;2.63;;;;;;;26.20;44.42;100739.53;5040984;28;20105;-86
2021/08/11 11:08:16;;;;;;;4.47;2.15;;;;;;;26.39;44.96;100740.28;5036451;28;20046;-84
2021/08/11 11:10:44;;;;;;;3.45;1.92;;;;;;;26.53;44.19;100739.66;5043259;28;20057;-85
2021/08/11 11:13:36;;;;;;;5.47;2.20;;;;;;;26.69;44.27;100747.81;5036835;28;20110;-85
2021/08/11 11:16:03;;;;;;;2.65;1.92;;;;;;;26.74;42.56;100737.31;5026876;28;20059;-85
2021/08/11 11:18:38;;;;;;;2.90;1.90;;;;;;;26.65;42.80;100741.03;5041481;28;20503;-83
2021/08/11 11:21:12;;;;;;;2.70;2.05;;;;;;;26.51;43.42;100734.38;5041600;28;20144;-83
2021/08/11 11:23:40;;;;;;;3.00;1.90;;;;;;;26.57;43.98;100735.59;5049991;28;20113;-85
2021/08/11 11:26:09;;;;;;;3.40;2.30;;;;;;;26.84;43.61;100742.56;5056437;28;20071;-86
2021/08/11 11:28:58;;;;;;;4.40;2.10;;;;;;;26.88;43.27;100736.66;5055363;28;20117;-82
2021/08/11 11:31:46;;;;;;;3.22;2.10;;;;;;;27.09;42.37;100736.16;5056029;28;20097;-84
2021/08/11 11:34:27;;;;;;;3.55;2.63;;;;;;;27.26;40.98;100739.69;5045371;28;20076;-83
2021/08/11 11:36:57;;;;;;;;;;;;;;;27.26;40.04;100734.25;5056980;28;20283;-84
2021/08/11 11:39:53;;;;;;;3.50;2.08;;;;;;;27.19;40.89;100736.00;5053161;28;19993;-86
2021/08/11 11:42:27;;;;;;;2.75;2.00;;;;;;;27.37;39.88;100720.34;5048170;28;20057;-86
2021/08/11 11:45:00;;;;;;;3.58;2.10;;;;;;;27.31;40.85;100726.44;5055186;28;20071;-87